createdAt,value
2022-07-26T00:01:52.640Z,0.50
2022-07-26T00:04:56.368Z,0.40
2022-07-26T00:08:10.728Z,0.43
2022-07-26T00:11:13.283Z,0.47
2022-07-26T00:14:15.797Z,0.63
2022-07-26T00:17:18.056Z,0.38
2022-07-26T00:20:21.957Z,0.50
2022-07-26T00:23:30.129Z,0.43
2022-07-26T00:26:33.023Z,0.55
2022-07-26T00:29:35.638Z,0.60
2022-07-26T00:32:38.815Z,0.60
2022-07-26T00:35:42.528Z,0.40
2022-07-26T00:38:44.832Z,0.50
2022-07-26T00:41:47.129Z,0.73
2022-07-26T00:44:49.471Z,0.50
2022-07-26T00:47:51.785Z,0.50
2022-07-26T00:50:55.824Z,0.60
2022-07-26T00:53:58.102Z,0.40
2022-07-26T00:57:00.640Z,0.50
2022-07-26T01:00:03.705Z,0.50
2022-07-26T01:03:06.163Z,0.60
2022-07-26T01:06:09.885Z,0.60
2022-07-26T01:09:12.479Z,0.50
2022-07-26T01:12:14.724Z,0.50
2022-07-26T01:15:17.574Z,0.55
2022-07-26T01:18:19.837Z,0.63
2022-07-26T01:21:28.148Z,0.68
2022-07-26T01:24:30.425Z,0.60
2022-07-26T01:27:34.459Z,0.70
2022-07-26T01:30:36.817Z,0.50
2022-07-26T01:33:39.071Z,0.68
2022-07-26T01:36:42.757Z,0.70
2022-07-26T01:39:45.869Z,0.60
2022-07-26T01:42:48.142Z,0.70
2022-07-26T01:45:50.586Z,0.70
2022-07-26T01:48:53.069Z,1.23
2022-07-26T01:51:56.689Z,0.60
2022-07-26T01:54:58.986Z,0.60
2022-07-26T01:58:02.654Z,0.63
2022-07-26T02:01:05.074Z,0.95
2022-07-26T02:04:07.823Z,0.73
2022-07-26T02:07:13.280Z,0.80
2022-07-26T02:10:16.657Z,0.70
2022-07-26T02:13:19.843Z,0.60
2022-07-26T02:16:22.230Z,0.80
2022-07-26T02:19:24.547Z,0.60
2022-07-26T02:22:28.255Z,0.70
2022-07-26T02:25:30.633Z,0.60
2022-07-26T02:28:32.939Z,0.73
2022-07-26T02:31:35.279Z,0.60
2022-07-26T02:34:37.830Z,0.73
2022-07-26T02:37:43.820Z,0.70
2022-07-26T02:40:46.454Z,0.70
2022-07-26T02:43:48.749Z,0.70
2022-07-26T02:46:51.480Z,0.95
2022-07-26T02:49:53.909Z,0.95
2022-07-26T02:52:57.998Z,1.00
2022-07-26T02:56:00.354Z,0.70
2022-07-26T02:59:03.050Z,0.82
2022-07-26T03:02:05.425Z,0.80
2022-07-26T03:05:08.483Z,0.80
2022-07-26T03:08:12.124Z,1.45
2022-07-26T03:11:15.517Z,0.98
2022-07-26T03:14:17.764Z,0.85
2022-07-26T03:17:20.013Z,1.15
2022-07-26T03:20:22.339Z,0.80
2022-07-26T03:23:26.062Z,1.20
2022-07-26T03:26:29.295Z,1.67
2022-07-26T03:29:31.627Z,1.33
2022-07-26T03:32:33.878Z,0.98
2022-07-26T03:35:36.678Z,0.90
2022-07-26T03:38:40.589Z,1.48
2022-07-26T03:41:42.833Z,1.58
2022-07-26T03:44:45.141Z,0.82
2022-07-26T03:47:47.505Z,1.20
2022-07-26T03:50:49.835Z,1.30
2022-07-26T03:53:53.533Z,1.00
2022-07-26T03:56:55.910Z,1.20
2022-07-26T03:59:58.330Z,1.67
2022-07-26T04:03:00.699Z,1.55
2022-07-26T04:06:03.189Z,1.15
2022-07-26T04:09:08.075Z,1.60
2022-07-26T04:12:10.420Z,1.02
2022-07-26T04:15:12.820Z,1.17
2022-07-26T04:18:15.397Z,1.10
2022-07-26T04:21:18.025Z,1.10
2022-07-26T04:24:21.747Z,1.20
2022-07-26T04:27:28.180Z,1.33
2022-07-26T04:30:30.567Z,1.00
2022-07-26T04:33:36.106Z,1.20
2022-07-26T04:36:38.853Z,1.20
2022-07-26T04:39:42.522Z,1.30
2022-07-26T04:42:44.877Z,2.95
2022-07-26T04:45:47.843Z,2.03
2022-07-26T04:48:50.257Z,1.40
2022-07-26T04:51:57.529Z,1.30
2022-07-26T04:55:03.136Z,1.55
2022-07-26T04:58:05.673Z,1.40
2022-07-26T05:01:10.652Z,1.45
2022-07-26T05:04:13.495Z,1.50
2022-07-26T05:07:15.890Z,2.00
2022-07-26T05:10:20.687Z,1.50
2022-07-26T05:13:30.370Z,1.80
2022-07-26T05:16:34.145Z,1.65
2022-07-26T05:19:44.803Z,1.70
2022-07-26T05:22:50.940Z,2.05
2022-07-26T05:25:55.400Z,1.67
2022-07-26T05:28:58.862Z,1.90
2022-07-26T05:32:01.237Z,1.75
2022-07-26T05:35:03.951Z,1.90
2022-07-26T05:38:06.372Z,2.22
2022-07-26T05:41:10.174Z,2.17
2022-07-26T05:44:12.477Z,2.40
2022-07-26T05:47:15.323Z,1.83
2022-07-26T05:50:18.480Z,2.38
2022-07-26T05:53:20.752Z,1.85
2022-07-26T05:56:24.465Z,2.63
2022-07-26T05:59:26.775Z,2.20
2022-07-26T06:02:29.179Z,2.50
2022-07-26T06:05:31.460Z,3.17
2022-07-26T06:08:34.037Z,3.05
2022-07-26T06:11:37.738Z,2.15
2022-07-26T06:14:40.188Z,2.70
2022-07-26T06:17:43.156Z,2.03
2022-07-26T06:20:47.186Z,2.20
2022-07-26T06:23:49.491Z,3.35
2022-07-26T06:27:04.534Z,3.17
2022-07-26T06:30:09.173Z,3.47
2022-07-26T06:33:11.787Z,3.17
2022-07-26T06:36:14.073Z,3.65
2022-07-26T06:39:16.406Z,3.38
2022-07-26T06:42:20.095Z,3.42
2022-07-26T06:45:22.642Z,2.90
2022-07-26T06:48:26.251Z,4.15
2022-07-26T06:51:28.669Z,3.80
2022-07-26T06:54:31.005Z,3.65
2022-07-26T06:57:34.745Z,3.38
2022-07-26T07:00:52.609Z,2.97
2022-07-26T07:03:54.915Z,3.38
2022-07-26T07:07:02.278Z,3.40
2022-07-26T07:10:09.106Z,3.38
2022-07-26T07:13:12.803Z,3.67
2022-07-26T07:16:15.095Z,2.90
2022-07-26T07:19:17.524Z,3.63
2022-07-26T07:22:19.851Z,4.30
2022-07-26T07:25:30.346Z,4.25
2022-07-26T07:28:38.419Z,4.55
2022-07-26T07:31:48.250Z,5.40
2022-07-26T07:34:51.792Z,5.00
2022-07-26T07:37:54.292Z,4.78
2022-07-26T07:40:56.686Z,5.68
2022-07-26T07:44:00.371Z,5.28
2022-07-26T07:47:03.603Z,5.57
2022-07-26T07:50:07.274Z,6.18
2022-07-26T07:53:09.585Z,5.45
2022-07-26T07:56:11.956Z,5.85
2022-07-26T07:59:15.658Z,7.47
2022-07-26T08:02:18.134Z,7.28
2022-07-26T08:05:21.640Z,8.13
2022-07-26T08:08:25.226Z,9.60
2022-07-26T08:11:29.982Z,8.48
2022-07-26T08:14:34.032Z,8.73
2022-07-26T08:17:39.837Z,10.25
2022-07-26T08:20:44.329Z,10.98
2022-07-26T08:23:46.610Z,10.20
2022-07-26T08:26:51.324Z,10.63
2022-07-26T08:29:54.931Z,11.43
2022-07-26T08:32:57.277Z,12.38
2022-07-26T08:35:59.545Z,13.35
2022-07-26T08:39:02.394Z,11.48
2022-07-26T08:42:05.136Z,11.48
2022-07-26T08:45:09.750Z,10.68
2022-07-26T08:48:17.808Z,10.57
2022-07-26T08:51:23.253Z,10.40
2022-07-26T08:54:27.297Z,10.73
2022-07-26T08:57:29.702Z,9.52
2022-07-26T09:00:33.669Z,9.35
2022-07-26T09:03:39.151Z,10.70
2022-07-26T09:06:54.532Z,8.80
2022-07-26T09:09:59.000Z,9.38
2022-07-26T09:13:01.328Z,9.25
2022-07-26T09:16:11.868Z,7.82
2022-07-26T09:19:17.672Z,8.40
2022-07-26T09:22:20.039Z,8.15
2022-07-26T09:25:23.529Z,7.00
2022-07-26T09:28:27.286Z,6.10
2022-07-26T09:31:31.187Z,5.57
2022-07-26T09:34:33.697Z,6.65
2022-07-26T09:37:36.627Z,6.22
2022-07-26T09:40:39.041Z,6.47
2022-07-26T09:43:41.455Z,6.50
2022-07-26T09:46:53.515Z,6.20
2022-07-26T09:53:13.868Z,6.40
2022-07-26T09:56:16.254Z,6.82
2022-07-26T09:59:20.667Z,7.20
2022-07-26T10:02:24.449Z,7.07
2022-07-26T10:05:27.390Z,6.95
2022-07-26T10:08:30.926Z,6.90
2022-07-26T10:11:38.216Z,6.25
2022-07-26T10:14:42.661Z,5.80
2022-07-26T10:17:46.430Z,4.82
2022-07-26T10:20:50.771Z,5.88
2022-07-26T10:23:53.600Z,5.18
2022-07-26T10:26:56.232Z,4.50
2022-07-26T10:30:33.860Z,3.50
2022-07-26T10:33:43.557Z,3.47
2022-07-26T10:36:57.758Z,3.80
2022-07-26T10:40:21.061Z,3.15
2022-07-26T10:43:43.970Z,3.38
2022-07-26T10:47:32.058Z,3.72
2022-07-26T10:55:19.133Z,2.40
2022-07-26T10:58:50.943Z,2.97
2022-07-26T11:01:53.687Z,3.58
2022-07-26T11:05:01.823Z,3.00
2022-07-26T11:08:14.040Z,2.42
2022-07-26T11:11:29.969Z,2.63
2022-07-26T11:14:43.771Z,2.42
2022-07-26T11:17:50.858Z,2.40
2022-07-26T11:20:57.731Z,2.67
2022-07-26T11:24:06.263Z,2.70
2022-07-26T11:27:11.642Z,2.75
2022-07-26T11:30:17.659Z,2.65
2022-07-26T11:33:37.317Z,2.20
2022-07-26T11:36:41.802Z,2.72
2022-07-26T11:39:50.482Z,2.60
2022-07-26T11:42:54.345Z,3.45
2022-07-26T11:45:59.745Z,3.80
2022-07-26T11:49:12.957Z,3.70
2022-07-26T11:52:16.177Z,3.83
2022-07-26T11:55:30.830Z,3.58
2022-07-26T11:58:33.448Z,4.53
2022-07-26T12:01:35.905Z,4.20
2022-07-26T12:04:41.400Z,4.65
2022-07-26T12:07:57.721Z,2.60
2022-07-26T12:11:03.564Z,1.83
2022-07-26T12:14:06.101Z,2.17
2022-07-26T12:17:13.461Z,2.05
2022-07-26T12:20:17.920Z,2.70
2022-07-26T12:23:20.255Z,2.92
2022-07-26T12:26:26.246Z,3.45
2022-07-26T12:29:34.096Z,3.40
2022-07-26T12:32:37.649Z,3.33
2022-07-26T12:35:40.111Z,3.80
2022-07-26T12:38:44.120Z,3.63
2022-07-26T12:41:52.419Z,3.90
2022-07-26T12:44:55.272Z,2.97
2022-07-26T12:48:00.397Z,3.17
2022-07-26T12:52:17.543Z,2.97
2022-07-26T12:55:21.843Z,2.97
2022-07-26T12:58:28.144Z,2.80
2022-07-26T13:01:34.285Z,2.67
2022-07-26T13:04:37.217Z,2.72
2022-07-26T13:07:43.471Z,3.10
2022-07-26T13:10:48.951Z,3.67
2022-07-26T13:13:55.786Z,3.47
2022-07-26T13:17:04.098Z,3.30
2022-07-26T13:20:10.833Z,2.72
2022-07-26T13:23:22.095Z,1.92
2022-07-26T13:26:30.855Z,2.55
2022-07-26T13:29:36.339Z,1.38
2022-07-26T13:32:40.810Z,1.48
2022-07-26T13:35:45.539Z,1.40
2022-07-26T13:38:53.358Z,1.25
2022-07-26T13:42:22.208Z,1.60
2022-07-26T13:45:29.751Z,1.50
2022-07-26T13:48:35.732Z,2.28
2022-07-26T13:51:57.271Z,2.20
2022-07-26T13:54:59.601Z,2.65
2022-07-26T13:58:07.633Z,4.40
2022-07-26T14:01:13.442Z,2.95
2022-07-26T14:04:16.518Z,1.85
2022-07-26T14:07:19.063Z,2.58
2022-07-26T14:10:23.116Z,2.42
2022-07-26T14:13:25.503Z,2.90
2022-07-26T14:16:29.323Z,2.90
2022-07-26T14:19:31.613Z,2.20
2022-07-26T14:22:34.176Z,2.58
2022-07-26T14:25:36.677Z,1.83
2022-07-26T14:28:39.065Z,1.70
2022-07-26T14:31:42.900Z,1.55
2022-07-26T14:34:45.325Z,1.55
2022-07-26T14:37:47.746Z,1.58
2022-07-26T14:40:50.212Z,0.90
2022-07-26T14:43:54.434Z,0.65
2022-07-26T14:46:59.568Z,0.70
2022-07-26T14:50:06.503Z,0.90
2022-07-26T14:53:11.186Z,1.15
2022-07-26T14:56:13.713Z,0.70
2022-07-26T14:59:16.932Z,0.60
2022-07-26T15:02:20.826Z,0.70
2022-07-26T15:05:25.040Z,1.10
2022-07-26T15:08:27.417Z,0.65
2022-07-26T15:11:29.852Z,0.70
2022-07-26T15:14:33.073Z,1.00
2022-07-26T15:17:37.090Z,1.13
2022-07-26T15:20:39.968Z,0.80
2022-07-26T15:23:42.320Z,1.08
2022-07-26T15:26:46.741Z,1.02
2022-07-26T15:29:50.672Z,1.17
2022-07-26T15:32:55.745Z,1.10
2022-07-26T15:35:59.568Z,1.10
2022-07-26T15:39:16.108Z,0.95
2022-07-26T15:42:19.300Z,0.93
2022-07-26T15:45:24.986Z,0.90
2022-07-26T15:48:28.866Z,0.88
2022-07-26T15:51:32.228Z,0.90
2022-07-26T15:54:34.514Z,0.70
2022-07-26T15:57:36.947Z,0.85
2022-07-26T16:00:45.107Z,0.70
2022-07-26T16:03:48.905Z,0.63
2022-07-26T16:06:51.306Z,0.82
2022-07-26T16:09:53.819Z,0.70
2022-07-26T16:12:56.196Z,0.65
2022-07-26T16:15:58.691Z,0.70
2022-07-26T16:19:02.730Z,0.60
2022-07-26T16:22:05.215Z,0.68
2022-07-26T16:25:08.461Z,1.00
2022-07-26T16:28:10.912Z,0.70
2022-07-26T16:31:13.336Z,0.40
2022-07-26T16:34:17.124Z,0.60
2022-07-26T16:37:19.484Z,0.50
2022-07-26T16:40:22.090Z,0.50
2022-07-26T16:43:24.593Z,0.95
2022-07-26T16:46:26.998Z,0.50
2022-07-26T16:49:30.869Z,0.43
2022-07-26T16:52:33.272Z,0.32
2022-07-26T16:55:35.620Z,0.40
2022-07-26T16:58:37.916Z,0.60
2022-07-26T17:01:40.292Z,0.50
2022-07-26T17:04:44.040Z,0.40
2022-07-26T17:07:46.428Z,0.40
2022-07-26T17:10:48.736Z,0.57
2022-07-26T17:13:51.070Z,0.60
2022-07-26T17:16:53.517Z,0.40
2022-07-26T17:19:57.232Z,0.40
2022-07-26T17:22:59.506Z,0.50
2022-07-26T17:26:02.067Z,0.77
2022-07-26T17:29:06.217Z,1.30
2022-07-26T17:32:09.745Z,0.40
2022-07-26T17:35:13.484Z,0.40
2022-07-26T17:38:15.788Z,0.40
2022-07-26T17:41:19.382Z,0.50
2022-07-26T17:44:22.182Z,0.50
2022-07-26T17:47:28.903Z,0.57
2022-07-26T17:50:46.075Z,0.60
2022-07-26T17:53:53.010Z,1.20
2022-07-26T17:56:55.766Z,0.50
2022-07-26T18:00:00.796Z,0.80
2022-07-26T18:03:06.557Z,0.50
2022-07-26T18:06:10.498Z,0.38
2022-07-26T18:09:13.713Z,1.05
2022-07-26T18:12:16.229Z,0.80
2022-07-26T18:15:18.579Z,0.50
2022-07-26T18:18:21.133Z,0.70
2022-07-26T18:21:24.861Z,1.70
2022-07-26T18:24:27.156Z,0.70
2022-07-26T18:27:29.518Z,0.50
2022-07-26T18:30:32.132Z,0.60
2022-07-26T18:33:34.477Z,0.50
2022-07-26T18:36:38.173Z,0.43
2022-07-26T18:39:40.552Z,0.47
2022-07-26T18:42:42.985Z,0.60
2022-07-26T18:45:45.666Z,0.50
2022-07-26T18:48:48.184Z,0.40
2022-07-26T18:51:52.565Z,0.70
2022-07-26T18:54:55.209Z,0.40
2022-07-26T18:57:57.595Z,0.50
2022-07-26T19:00:59.957Z,0.50
2022-07-26T19:04:06.478Z,0.50
2022-07-26T19:07:10.841Z,0.95
2022-07-26T19:10:13.256Z,0.60
2022-07-26T19:13:15.900Z,0.52
2022-07-26T19:16:18.825Z,0.63
2022-07-26T19:19:21.475Z,0.60
2022-07-26T19:22:25.663Z,0.70
2022-07-26T19:25:28.063Z,0.60
2022-07-26T19:28:30.537Z,0.93
2022-07-26T19:31:33.051Z,0.70
2022-07-26T19:34:35.705Z,0.70
2022-07-26T19:37:39.319Z,0.80
2022-07-26T19:40:43.543Z,0.85
2022-07-26T19:43:45.804Z,0.90
2022-07-26T19:46:48.086Z,1.25
2022-07-26T19:49:50.409Z,0.70
2022-07-26T19:52:54.096Z,0.60
2022-07-26T19:55:56.454Z,1.10
2022-07-26T19:59:01.717Z,0.52
2022-07-26T20:02:05.495Z,0.85
2022-07-26T20:05:09.104Z,0.80
2022-07-26T20:08:12.847Z,0.88
2022-07-26T20:11:15.591Z,0.65
2022-07-26T20:14:18.272Z,0.90
2022-07-26T20:17:21.161Z,0.80
2022-07-26T20:20:24.189Z,0.60
2022-07-26T20:23:28.815Z,0.70
2022-07-26T20:26:31.247Z,0.50
2022-07-26T20:29:33.867Z,0.77
2022-07-26T20:32:36.108Z,0.70
2022-07-26T20:35:38.520Z,0.57
2022-07-26T20:38:42.151Z,0.82
2022-07-26T20:41:44.453Z,0.93
2022-07-26T20:44:47.314Z,2.70
2022-07-26T20:47:50.988Z,0.70
2022-07-26T20:50:53.246Z,0.85
2022-07-26T20:53:56.994Z,0.88
2022-07-26T20:56:59.316Z,1.10
2022-07-26T21:00:04.430Z,1.13
2022-07-26T21:03:06.727Z,0.80
2022-07-26T21:06:09.192Z,0.60
2022-07-26T21:09:13.245Z,1.33
2022-07-26T21:12:15.757Z,1.15
2022-07-26T21:15:18.265Z,1.10
2022-07-26T21:18:20.814Z,1.08
2022-07-26T21:21:23.154Z,0.90
2022-07-26T21:24:26.833Z,1.10
2022-07-26T21:27:29.069Z,1.33
2022-07-26T21:30:31.437Z,1.30
2022-07-26T21:33:33.817Z,1.40
2022-07-26T21:36:38.434Z,0.90
2022-07-26T21:39:42.063Z,1.30
2022-07-26T21:42:44.337Z,1.65
2022-07-26T21:45:46.889Z,0.90
2022-07-26T21:48:49.208Z,0.90
2022-07-26T21:51:51.527Z,1.20
2022-07-26T21:54:55.156Z,1.58
2022-07-26T21:57:57.464Z,1.05
2022-07-26T22:01:06.120Z,1.48
2022-07-26T22:04:10.155Z,0.77
2022-07-26T22:07:12.554Z,0.85
2022-07-26T22:10:16.314Z,0.90
2022-07-26T22:13:19.144Z,0.90
2022-07-26T22:16:21.678Z,0.98
2022-07-26T22:19:24.044Z,1.10
2022-07-26T22:22:26.373Z,0.93
2022-07-26T22:25:31.207Z,0.88
2022-07-26T22:28:34.366Z,0.80
2022-07-26T22:31:36.703Z,1.00
2022-07-26T22:34:39.068Z,0.50
2022-07-26T22:37:41.419Z,0.60
2022-07-26T22:40:45.184Z,0.52
2022-07-26T22:43:47.463Z,0.80
2022-07-26T22:46:49.731Z,0.75
2022-07-26T22:49:52.161Z,0.65
2022-07-26T22:52:54.863Z,0.47
2022-07-26T22:55:58.517Z,0.50
2022-07-26T22:59:00.838Z,0.50
2022-07-26T23:02:03.141Z,0.80
2022-07-26T23:05:06.419Z,0.50
2022-07-26T23:08:36.215Z,0.80
2022-07-26T23:11:32.942Z,1.42
2022-07-26T23:14:35.211Z,0.43
2022-07-26T23:17:37.717Z,0.60
2022-07-26T23:20:40.079Z,0.70
2022-07-26T23:23:42.448Z,0.50
2022-07-26T23:26:46.075Z,0.47
2022-07-26T23:29:49.946Z,0.63
2022-07-26T23:32:52.260Z,0.60
2022-07-26T23:35:54.556Z,0.52
2022-07-26T23:38:58.453Z,0.60
2022-07-26T23:42:04.998Z,0.40
2022-07-26T23:45:08.250Z,0.75
2022-07-26T23:48:10.545Z,0.45
2022-07-26T23:51:13.122Z,0.60
2022-07-26T23:54:15.417Z,0.88
2022-07-26T23:57:19.118Z,0.68
